Terminal Aerodrome Forecast
Issued by NWS Binghamton, NY

Home | Current Version | Previous Version | Text Only | Print | Product List | Glossary On
Versions: 1 2 3 4 5 6 7 8 9 10 11 12 13 14 15 16 17 18 19 20 21 22 23 24 25
363
FTUS41 KBGM 231936 AAC
TAFSYR
TAF AMD
KSYR 231936Z 2320/2418 07012G21KT P6SM OVC090
     FM232300 07011KT 5SM -RAPL OVC050
     FM240300 06010G18KT 2SM -SNPL OVC020
     FM240500 05011G20KT 1SM -SNPL OVC010
     FM240900 03011KT 1SM -SN OVC008=

USA.gov is the U.S. government's official web portal to all federal, state and local government web resources and services.